Time;durP1;ratioP1;P1;durP2;ratioP2;P2;SDS_P1;SDS_P2;PMS_P1;PMS_P2;Temp;Humidity;BMP_temperature;BMP_pressure;BME280_temperature;BME280_humidity;BME280_pressure;Samples;Min_cycle;Max_cycle;Signal;HPM_P1;HPM_P2
2023/10/31 00:01:43;;;;;;;4.60;1.90;;;;;;;;;;5070095;28;20021;-78
2023/10/31 00:04:09;;;;;;;7.18;2.17;;;;;;;;;;5072353;28;20060;-78
2023/10/31 00:06:35;;;;;;;9.05;2.10;;;;;;;;;;5070100;28;20075;-78
2023/10/31 00:09:01;;;;;;;6.93;2.53;;;;;;;;;;5054956;28;20960;-78
2023/10/31 00:11:27;;;;;;;10.13;2.88;;;;;;;;;;5069703;28;20041;-78
2023/10/31 00:13:53;;;;;;;7.80;3.00;;;;;;;;;;5071783;28;20428;-78
2023/10/31 00:16:19;;;;;;;11.60;3.10;;;;;;;;;;5071211;28;20036;-78
2023/10/31 00:18:45;;;;;;;9.25;3.28;;;;;;;;;;5070832;28;20049;-78
2023/10/31 00:21:11;;;;;;;8.63;3.28;;;;;;;;;;5068008;28;20473;-78
2023/10/31 00:23:44;;;;;;;10.93;3.05;;;;;;;;;;5070727;28;20021;-78
2023/10/31 00:26:10;;;;;;;6.45;2.60;;;;;;;;;;5045206;28;20090;-77
2023/10/31 00:28:36;;;;;;;6.25;2.83;;;;;;;;;;5069015;28;20036;-75
2023/10/31 00:31:03;;;;;;;7.13;3.10;;;;;;;;;;5066557;28;20078;-76
2023/10/31 00:33:29;;;;;;;11.55;3.13;;;;;;;;;;5064988;28;20086;-76
2023/10/31 00:35:56;;;;;;;5.78;2.65;;;;;;;;;;5071213;28;20036;-77
2023/10/31 00:38:22;;;;;;;9.85;2.50;;;;;;;;;;5069846;28;20037;-76
2023/10/31 00:40:48;;;;;;;5.82;2.70;;;;;;;;;;5069967;28;20048;-75
2023/10/31 00:43:14;;;;;;;7.43;2.67;;;;;;;;;;5068837;28;20683;-74
2023/10/31 00:45:40;;;;;;;9.95;3.03;;;;;;;;;;5071793;28;20076;-74
2023/10/31 00:48:06;;;;;;;14.15;3.22;;;;;;;;;;5065864;28;20478;-73
2023/10/31 00:50:32;;;;;;;9.43;2.10;;;;;;;;;;5063584;28;20039;-77
2023/10/31 00:52:58;;;;;;;10.55;3.03;;;;;;;;;;5065259;28;20056;-77
2023/10/31 00:55:24;;;;;;;7.82;2.50;;;;;;;;;;5066827;28;20033;-77
2023/10/31 00:57:50;;;;;;;5.80;2.08;;;;;;;;;;5051936;28;20452;-77
2023/10/31 01:00:17;;;;;;;11.75;2.25;;;;;;;;;;5071521;28;20103;-76
2023/10/31 01:02:43;;;;;;;7.60;1.92;;;;;;;;;;5068051;28;20489;-76
2023/10/31 01:05:09;;;;;;;5.75;1.70;;;;;;;;;;5069721;28;20055;-77
2023/10/31 01:07:35;;;;;;;14.80;1.80;;;;;;;;;;5069238;28;20048;-76
2023/10/31 01:10:01;;;;;;;6.63;1.83;;;;;;;;;;5068854;28;20028;-78
2023/10/31 01:12:27;;;;;;;12.23;2.10;;;;;;;;;;5067311;28;20982;-78
2023/10/31 01:14:54;;;;;;;6.22;2.30;;;;;;;;;;5066627;28;20029;-79
2023/10/31 01:17:21;;;;;;;7.45;2.00;;;;;;;;;;5068287;28;20076;-78
2023/10/31 01:19:47;;;;;;;10.90;2.80;;;;;;;;;;5052396;28;20025;-78
2023/10/31 01:22:13;;;;;;;8.43;2.05;;;;;;;;;;5069880;28;20099;-78
2023/10/31 01:24:39;;;;;;;10.90;2.47;;;;;;;;;;5051527;28;20111;-77
2023/10/31 01:27:05;;;;;;;5.35;1.92;;;;;;;;;;5065274;28;20672;-77
2023/10/31 01:29:31;;;;;;;22.25;3.13;;;;;;;;;;5068382;28;20077;-76
2023/10/31 01:31:57;;;;;;;5.07;1.92;;;;;;;;;;5050088;28;20977;-75
2023/10/31 01:34:23;;;;;;;9.00;2.70;;;;;;;;;;5069773;28;20112;-75
2023/10/31 01:36:49;;;;;;;11.40;4.00;;;;;;;;;;5067321;28;20067;-78
2023/10/31 01:39:15;;;;;;;10.88;2.90;;;;;;;;;;5070544;28;20106;-76
2023/10/31 01:41:42;;;;;;;7.43;3.78;;;;;;;;;;5069077;28;20377;-77
2023/10/31 01:44:09;;;;;;;8.57;3.15;;;;;;;;;;5070677;28;20020;-77
2023/10/31 01:46:35;;;;;;;7.60;3.03;;;;;;;;;;5050463;28;20051;-77
2023/10/31 01:49:01;;;;;;;8.68;2.85;;;;;;;;;;5068284;28;20460;-77
2023/10/31 01:51:28;;;;;;;11.43;3.30;;;;;;;;;;5069554;28;20047;-77
2023/10/31 01:53:54;;;;;;;8.02;3.10;;;;;;;;;;5069096;28;20043;-77
2023/10/31 01:56:21;;;;;;;15.07;5.00;;;;;;;;;;5070010;28;20051;-77
2023/10/31 01:58:47;;;;;;;12.07;4.28;;;;;;;;;;5068797;28;20035;-77
2023/10/31 02:01:13;;;;;;;8.38;3.83;;;;;;;;;;5068380;28;20496;-77
2023/10/31 02:03:39;;;;;;;13.65;4.90;;;;;;;;;;5034785;28;20477;-77
2023/10/31 02:06:05;;;;;;;9.90;3.67;;;;;;;;;;5066023;28;20067;-77
2023/10/31 02:08:32;;;;;;;12.65;3.10;;;;;;;;;;5069068;28;20496;-77
2023/10/31 02:10:58;;;;;;;12.73;4.55;;;;;;;;;;5054652;28;20470;-77
2023/10/31 02:13:24;;;;;;;11.52;3.55;;;;;;;;;;5068715;28;20032;-77
2023/10/31 02:15:50;;;;;;;12.60;3.65;;;;;;;;;;5069346;28;20050;-77
2023/10/31 02:18:16;;;;;;;8.00;3.08;;;;;;;;;;5066243;28;20082;-77
2023/10/31 02:20:42;;;;;;;13.48;3.50;;;;;;;;;;5068876;28;20061;-77
2023/10/31 02:23:08;;;;;;;14.18;4.20;;;;;;;;;;5068913;28;20044;-77
2023/10/31 02:25:34;;;;;;;13.02;3.50;;;;;;;;;;5068881;28;20429;-77
2023/10/31 02:28:00;;;;;;;12.93;2.85;;;;;;;;;;5069346;28;20111;-77
2023/10/31 02:30:27;;;;;;;17.42;3.75;;;;;;;;;;5068432;28;20060;-77
2023/10/31 02:32:53;;;;;;;12.05;3.00;;;;;;;;;;5068039;28;20041;-77
2023/10/31 02:35:19;;;;;;;11.38;3.20;;;;;;;;;;5066425;28;20424;-77
2023/10/31 02:37:46;;;;;;;6.43;2.10;;;;;;;;;;5067831;28;20481;-77
2023/10/31 02:40:12;;;;;;;10.68;2.35;;;;;;;;;;5068747;28;20060;-77
2023/10/31 02:42:38;;;;;;;9.40;2.20;;;;;;;;;;5050857;28;20100;-78
2023/10/31 02:45:04;;;;;;;10.60;2.00;;;;;;;;;;5068554;28;20028;-76
2023/10/31 02:47:30;;;;;;;10.68;1.92;;;;;;;;;;5069131;28;20063;-77
2023/10/31 02:49:57;;;;;;;10.77;2.72;;;;;;;;;;5067729;28;20082;-77
2023/10/31 02:52:23;;;;;;;15.00;2.25;;;;;;;;;;5047740;28;20081;-78
2023/10/31 02:54:49;;;;;;;4.78;2.30;;;;;;;;;;5050799;28;20575;-77
2023/10/31 02:57:16;;;;;;;12.73;2.40;;;;;;;;;;5070112;28;20055;-77
2023/10/31 02:59:42;;;;;;;8.48;2.38;;;;;;;;;;5068869;28;20033;-77
2023/10/31 03:02:08;;;;;;;15.80;2.45;;;;;;;;;;5069335;28;20028;-77
2023/10/31 03:04:34;;;;;;;14.00;2.72;;;;;;;;;;5067081;28;20040;-77
2023/10/31 03:07:00;;;;;;;12.18;3.13;;;;;;;;;;5068530;28;20385;-77
2023/10/31 03:09:26;;;;;;;15.20;3.13;;;;;;;;;;5067412;28;20033;-77
2023/10/31 03:11:53;;;;;;;8.70;2.83;;;;;;;;;;5067903;28;20047;-76
2023/10/31 03:14:19;;;;;;;15.05;3.80;;;;;;;;;;5068807;28;20036;-76
2023/10/31 03:16:45;;;;;;;11.90;3.45;;;;;;;;;;5065580;28;20036;-77
2023/10/31 03:19:11;;;;;;;18.27;3.42;;;;;;;;;;5069482;28;20032;-77
2023/10/31 03:21:37;;;;;;;13.55;3.90;;;;;;;;;;5067780;28;20044;-77
2023/10/31 03:24:03;;;;;;;14.05;3.53;;;;;;;;;;5068241;28;20033;-77
2023/10/31 03:26:29;;;;;;;13.15;3.53;;;;;;;;;;5049028;28;20045;-77
2023/10/31 03:28:57;;;;;;;16.85;4.20;;;;;;;;;;5068788;28;20090;-77
2023/10/31 03:31:23;;;;;;;10.40;3.70;;;;;;;;;;5068338;28;20115;-77
2023/10/31 03:33:49;;;;;;;10.93;4.25;;;;;;;;;;5067803;28;20033;-78
2023/10/31 03:36:15;;;;;;;11.23;4.22;;;;;;;;;;5068066;28;20036;-78
2023/10/31 03:38:41;;;;;;;9.23;3.00;;;;;;;;;;5048304;28;20055;-77
2023/10/31 03:41:08;;;;;;;9.52;2.83;;;;;;;;;;5067922;28;20059;-77
2023/10/31 03:43:34;;;;;;;8.43;3.25;;;;;;;;;;5050577;28;20028;-77
2023/10/31 03:46:00;;;;;;;5.75;2.10;;;;;;;;;;5068054;28;20103;-78
2023/10/31 03:48:26;;;;;;;17.27;2.60;;;;;;;;;;5067751;28;20017;-77
2023/10/31 03:50:52;;;;;;;9.77;1.80;;;;;;;;;;5068376;28;20062;-77
2023/10/31 03:53:18;;;;;;;8.63;2.15;;;;;;;;;;5067657;28;20033;-77
2023/10/31 03:55:44;;;;;;;13.07;2.47;;;;;;;;;;5068051;28;20036;-78
2023/10/31 03:58:10;;;;;;;5.75;1.33;;;;;;;;;;5067676;28;20492;-78
2023/10/31 04:00:36;;;;;;;8.52;2.13;;;;;;;;;;5068102;28;20067;-77
2023/10/31 04:03:02;;;;;;;7.18;1.20;;;;;;;;;;5067502;28;20473;-78
2023/10/31 04:05:28;;;;;;;5.78;1.15;;;;;;;;;;5069483;28;20036;-78
2023/10/31 04:07:54;;;;;;;9.80;1.05;;;;;;;;;;5068732;28;20595;-77
2023/10/31 04:10:21;;;;;;;5.68;1.08;;;;;;;;;;5071459;28;20028;-78
2023/10/31 04:12:47;;;;;;;3.70;1.17;;;;;;;;;;5071162;28;20058;-77
2023/10/31 04:15:13;;;;;;;6.53;0.98;;;;;;;;;;5071486;28;20036;-78
2023/10/31 04:17:39;;;;;;;5.95;1.00;;;;;;;;;;5048029;28;20053;-77
2023/10/31 04:20:05;;;;;;;5.88;1.27;;;;;;;;;;5071094;28;20040;-77
2023/10/31 04:22:31;;;;;;;7.50;2.03;;;;;;;;;;5070041;28;20035;-77
2023/10/31 04:24:57;;;;;;;3.00;0.90;;;;;;;;;;5071161;28;20036;-77
2023/10/31 04:27:23;;;;;;;2.67;0.70;;;;;;;;;;5070585;28;20386;-77
2023/10/31 04:29:49;;;;;;;9.65;1.00;;;;;;;;;;5070989;28;20400;-77
2023/10/31 04:32:15;;;;;;;6.28;0.68;;;;;;;;;;5070679;28;20050;-77
2023/10/31 04:34:41;;;;;;;9.57;1.88;;;;;;;;;;5052586;28;20036;-78
2023/10/31 04:37:07;;;;;;;9.32;1.23;;;;;;;;;;5071567;28;20488;-79
2023/10/31 04:39:33;;;;;;;3.63;1.10;;;;;;;;;;5071019;28;20416;-78
2023/10/31 04:41:59;;;;;;;6.57;1.00;;;;;;;;;;5071751;28;20530;-78
2023/10/31 04:44:26;;;;;;;6.38;0.75;;;;;;;;;;5070450;28;20036;-78
2023/10/31 04:46:52;;;;;;;5.78;1.25;;;;;;;;;;5069857;28;20044;-79
2023/10/31 04:49:18;;;;;;;3.17;0.63;;;;;;;;;;5070154;28;20043;-78
2023/10/31 04:51:44;;;;;;;3.53;0.65;;;;;;;;;;5070343;28;21012;-79
2023/10/31 04:54:10;;;;;;;7.97;0.65;;;;;;;;;;5070320;28;20049;-79
2023/10/31 04:56:36;;;;;;;4.82;0.43;;;;;;;;;;5070541;28;20063;-78
2023/10/31 04:59:03;;;;;;;2.83;0.73;;;;;;;;;;5052737;28;20056;-79
2023/10/31 05:01:29;;;;;;;4.85;0.60;;;;;;;;;;5034399;28;20545;-78
2023/10/31 05:03:55;;;;;;;10.35;1.13;;;;;;;;;;5070888;28;20111;-78
2023/10/31 05:06:21;;;;;;;7.03;0.88;;;;;;;;;;5070609;28;20052;-79
2023/10/31 05:08:47;;;;;;;4.20;0.73;;;;;;;;;;5069891;28;20029;-79
2023/10/31 05:11:13;;;;;;;6.50;1.48;;;;;;;;;;5070614;28;20025;-79
2023/10/31 05:13:40;;;;;;;3.97;0.95;;;;;;;;;;5069860;28;20060;-80
2023/10/31 05:16:06;;;;;;;5.45;1.67;;;;;;;;;;5067191;28;20033;-79
2023/10/31 05:18:32;;;;;;;7.18;1.35;;;;;;;;;;5070267;28;20041;-78
2023/10/31 05:20:58;;;;;;;11.13;1.35;;;;;;;;;;5069810;28;20031;-80
2023/10/31 05:23:24;;;;;;;5.15;1.05;;;;;;;;;;5070816;28;20375;-78
2023/10/31 05:25:50;;;;;;;4.43;1.38;;;;;;;;;;5068753;28;20504;-78
2023/10/31 05:28:16;;;;;;;6.10;1.45;;;;;;;;;;5069898;28;20032;-78
2023/10/31 05:30:42;;;;;;;7.75;1.65;;;;;;;;;;5063649;28;20039;-78
2023/10/31 05:33:09;;;;;;;5.68;1.48;;;;;;;;;;5070259;28;20029;-78
2023/10/31 05:35:35;;;;;;;5.47;1.50;;;;;;;;;;5065693;28;20032;-79
2023/10/31 05:38:01;;;;;;;9.07;1.23;;;;;;;;;;5069897;28;20484;-78
2023/10/31 05:40:29;;;;;;;2.60;1.02;;;;;;;;;;5051707;28;20082;-78
2023/10/31 05:42:57;;;;;;;5.88;1.20;;;;;;;;;;5068959;28;20044;-78
2023/10/31 05:45:23;;;;;;;4.93;1.00;;;;;;;;;;5069500;28;20086;-79
2023/10/31 05:47:49;;;;;;;5.40;1.10;;;;;;;;;;5067956;28;20497;-79
2023/10/31 05:50:14;;;;;;;7.70;1.08;;;;;;;;;;5069015;28;20041;-79
2023/10/31 05:52:40;;;;;;;6.78;1.10;;;;;;;;;;5067444;28;20028;-79
2023/10/31 05:55:07;;;;;;;3.20;1.10;;;;;;;;;;5067569;28;20033;-78
2023/10/31 05:57:33;;;;;;;8.15;1.65;;;;;;;;;;5068065;28;20090;-77
2023/10/31 05:59:59;;;;;;;4.55;1.20;;;;;;;;;;5066353;28;20458;-79
2023/10/31 06:02:25;;;;;;;5.13;1.30;;;;;;;;;;5069126;28;20029;-79
2023/10/31 06:04:51;;;;;;;2.72;1.30;;;;;;;;;;5068039;28;20031;-78
2023/10/31 06:07:17;;;;;;;2.53;1.33;;;;;;;;;;5068795;28;20485;-74
2023/10/31 06:09:43;;;;;;;6.22;2.20;;;;;;;;;;5061056;28;20039;-73
2023/10/31 06:12:09;;;;;;;5.25;2.33;;;;;;;;;;5064617;28;20033;-73
2023/10/31 06:14:35;;;;;;;11.13;4.35;;;;;;;;;;5067625;28;20024;-74
2023/10/31 06:17:01;;;;;;;5.65;1.73;;;;;;;;;;5067113;28;20061;-79
2023/10/31 06:19:27;;;;;;;4.43;2.00;;;;;;;;;;5052096;28;20380;-80
2023/10/31 06:21:53;;;;;;;3.10;1.70;;;;;;;;;;5067326;28;20029;-79
2023/10/31 06:24:19;;;;;;;6.85;2.53;;;;;;;;;;5058267;28;20028;-79
2023/10/31 06:26:45;;;;;;;8.95;2.00;;;;;;;;;;5049432;28;20143;-77
2023/10/31 06:29:11;;;;;;;6.32;2.38;;;;;;;;;;5064942;28;20036;-80
2023/10/31 06:31:37;;;;;;;4.70;1.80;;;;;;;;;;5063245;28;20040;-80
2023/10/31 06:34:03;;;;;;;9.75;2.08;;;;;;;;;;5051363;28;20465;-79
2023/10/31 06:36:29;;;;;;;8.77;2.45;;;;;;;;;;5071265;28;20094;-79
2023/10/31 06:38:56;;;;;;;9.65;2.40;;;;;;;;;;5070018;28;20037;-79
2023/10/31 06:41:22;;;;;;;21.95;11.43;;;;;;;;;;5070798;28;20031;-78
2023/10/31 06:43:48;;;;;;;6.90;2.95;;;;;;;;;;5070485;28;20036;-79
2023/10/31 06:46:15;;;;;;;6.85;3.05;;;;;;;;;;5070671;28;20044;-78
2023/10/31 06:48:42;;;;;;;6.32;2.65;;;;;;;;;;5047636;28;20052;-79
2023/10/31 06:51:08;;;;;;;5.35;2.13;;;;;;;;;;5070565;28;20047;-78
2023/10/31 06:53:34;;;;;;;6.10;2.17;;;;;;;;;;5067508;28;20051;-78
2023/10/31 06:56:00;;;;;;;7.18;2.03;;;;;;;;;;5066759;28;20028;-78
2023/10/31 06:58:26;;;;;;;6.38;2.15;;;;;;;;;;5069211;28;20039;-78
2023/10/31 07:00:52;;;;;;;8.63;2.17;;;;;;;;;;5066932;28;20028;-79
2023/10/31 07:03:18;;;;;;;8.25;2.00;;;;;;;;;;5067685;28;20466;-78
2023/10/31 07:05:44;;;;;;;5.78;1.55;;;;;;;;;;5068396;28;20040;-79
2023/10/31 07:08:10;;;;;;;3.58;1.20;;;;;;;;;;5067440;28;20454;-80
2023/10/31 07:10:36;;;;;;;6.50;1.90;;;;;;;;;;5069250;28;20389;-80
2023/10/31 07:13:02;;;;;;;4.50;1.85;;;;;;;;;;5068648;28;20179;-80
2023/10/31 07:15:28;;;;;;;8.13;2.17;;;;;;;;;;5064833;28;20489;-78
2023/10/31 07:17:54;;;;;;;3.30;1.30;;;;;;;;;;5067366;28;20501;-83
2023/10/31 07:20:20;;;;;;;8.13;1.42;;;;;;;;;;5050454;28;20056;-82
2023/10/31 07:22:46;;;;;;;8.68;1.17;;;;;;;;;;5066512;28;20321;-81
2023/10/31 07:25:12;;;;;;;6.35;1.40;;;;;;;;;;5066246;28;20071;-82
2023/10/31 07:27:38;;;;;;;3.88;1.40;;;;;;;;;;5067001;28;20083;-83
2023/10/31 07:30:06;;;;;;;4.95;1.00;;;;;;;;;;5068599;28;20028;-82
2023/10/31 07:32:32;;;;;;;4.07;0.80;;;;;;;;;;5064033;28;20043;-78
2023/10/31 07:34:58;;;;;;;11.20;0.90;;;;;;;;;;5058458;28;20527;-78
2023/10/31 07:37:24;;;;;;;4.45;0.70;;;;;;;;;;5066227;28;20499;-79
2023/10/31 07:39:53;;;;;;;7.65;1.30;;;;;;;;;;5069301;28;20064;-79
2023/10/31 07:42:19;;;;;;;42.67;24.27;;;;;;;;;;5070383;28;20091;-80
2023/10/31 07:44:45;;;;;;;9.35;4.03;;;;;;;;;;5070129;28;20033;-80
2023/10/31 07:47:11;;;;;;;6.65;1.80;;;;;;;;;;5072718;28;20063;-80
2023/10/31 07:49:37;;;;;;;6.30;1.20;;;;;;;;;;5071015;28;20033;-79
2023/10/31 07:52:03;;;;;;;3.65;0.88;;;;;;;;;;5071667;28;20496;-80
2023/10/31 07:54:29;;;;;;;6.57;1.30;;;;;;;;;;5069866;28;20101;-79
2023/10/31 07:56:55;;;;;;;3.75;0.60;;;;;;;;;;5068947;28;20661;-76
2023/10/31 07:59:21;;;;;;;5.57;1.27;;;;;;;;;;5053070;28;20169;-78
2023/10/31 08:01:48;;;;;;;2.25;0.57;;;;;;;;;;5071042;28;20105;-79
2023/10/31 08:04:16;;;;;;;3.58;0.77;;;;;;;;;;5067163;28;20079;-82
2023/10/31 08:06:43;;;;;;;3.97;0.70;;;;;;;;;;5054196;28;20037;-79
2023/10/31 08:09:09;;;;;;;5.72;0.70;;;;;;;;;;5071710;28;20040;-81
2023/10/31 08:11:35;;;;;;;2.63;0.60;;;;;;;;;;5052243;28;20373;-78
2023/10/31 08:14:04;;;;;;;4.28;0.70;;;;;;;;;;5072077;28;20066;-80
2023/10/31 08:16:32;;;;;;;5.97;0.73;;;;;;;;;;5069558;28;20051;-86
2023/10/31 08:18:58;;;;;;;6.82;1.27;;;;;;;;;;5071923;28;20051;-85
2023/10/31 08:21:24;;;;;;;8.52;0.82;;;;;;;;;;5051693;28;20043;-82
2023/10/31 08:23:50;;;;;;;4.93;0.90;;;;;;;;;;5052498;28;20516;-81
2023/10/31 08:26:16;;;;;;;4.88;1.00;;;;;;;;;;5070660;28;20521;-78
2023/10/31 08:28:42;;;;;;;4.38;0.60;;;;;;;;;;5070479;28;20033;-87
2023/10/31 08:31:08;;;;;;;10.30;2.10;;;;;;;;;;5071911;28;20036;-75
2023/10/31 08:33:34;;;;;;;2.45;0.55;;;;;;;;;;5070158;28;20028;-76
2023/10/31 08:36:01;;;;;;;4.68;0.63;;;;;;;;;;5068642;28;20029;-72
2023/10/31 08:38:28;;;;;;;25.88;2.25;;;;;;;;;;5069128;28;20345;-76
2023/10/31 08:40:54;;;;;;;30.63;2.95;;;;;;;;;;5070003;28;20159;-72
2023/10/31 08:43:20;;;;;;;7.10;0.63;;;;;;;;;;5070764;28;20525;-69
2023/10/31 08:45:46;;;;;;;18.48;1.48;;;;;;;;;;5070046;28;20119;-71
2023/10/31 08:48:12;;;;;;;62.25;4.82;;;;;;;;;;5073111;28;20046;-69
2023/10/31 08:50:38;;;;;;;5.07;0.32;;;;;;;;;;5068072;28;20851;-73
2023/10/31 08:53:05;;;;;;;227.80;14.60;;;;;;;;;;5069713;28;20046;-73
2023/10/31 08:55:31;;;;;;;239.13;20.77;;;;;;;;;;5068023;28;20032;-73
2023/10/31 08:57:57;;;;;;;18.42;1.98;;;;;;;;;;5070751;28;20490;-71
2023/10/31 09:00:23;;;;;;;70.88;3.50;;;;;;;;;;5070312;28;20033;-71
2023/10/31 09:02:49;;;;;;;32.35;4.70;;;;;;;;;;5070884;28;20055;-70
2023/10/31 09:05:15;;;;;;;10.15;1.30;;;;;;;;;;5069743;28;20033;-75
2023/10/31 09:07:41;;;;;;;23.05;2.22;;;;;;;;;;5064550;28;20047;-71
2023/10/31 09:10:07;;;;;;;24.55;1.80;;;;;;;;;;5070523;28;20078;-71
2023/10/31 09:12:33;;;;;;;25.58;2.67;;;;;;;;;;5069528;28;20032;-71
2023/10/31 09:15:00;;;;;;;50.83;3.20;;;;;;;;;;5069511;28;20042;-70
2023/10/31 09:17:26;;;;;;;52.83;3.05;;;;;;;;;;5067339;28;20131;-68
2023/10/31 09:19:52;;;;;;;27.45;2.85;;;;;;;;;;5067884;28;20477;-70
2023/10/31 09:22:18;;;;;;;9.40;1.02;;;;;;;;;;5070060;28;20029;-71
2023/10/31 09:24:44;;;;;;;14.77;1.25;;;;;;;;;;5069796;28;20043;-71
2023/10/31 09:27:10;;;;;;;8.23;0.88;;;;;;;;;;5068497;28;20033;-69
2023/10/31 09:29:36;;;;;;;16.35;1.27;;;;;;;;;;5069590;28;20037;-73
2023/10/31 09:32:03;;;;;;;15.25;1.70;;;;;;;;;;5069722;28;20089;-72
2023/10/31 09:34:29;;;;;;;32.30;3.22;;;;;;;;;;5063411;28;20095;-71
2023/10/31 09:36:55;;;;;;;102.85;6.20;;;;;;;;;;5050574;28;20422;-71
2023/10/31 09:39:22;;;;;;;19.88;1.40;;;;;;;;;;5071072;28;20370;-72
2023/10/31 09:41:49;;;;;;;10.35;1.27;;;;;;;;;;5069184;28;20033;-73
2023/10/31 09:44:15;;;;;;;37.85;3.35;;;;;;;;;;5067465;28;20033;-72
2023/10/31 09:46:41;;;;;;;3.08;0.60;;;;;;;;;;5064438;28;20607;-76
2023/10/31 09:49:08;;;;;;;7.28;0.80;;;;;;;;;;5064762;28;20481;-74
2023/10/31 09:51:34;;;;;;;8.90;1.00;;;;;;;;;;5067578;28;20027;-70
2023/10/31 09:54:03;;;;;;;4.07;0.80;;;;;;;;;;5066908;28;20095;-70
2023/10/31 09:56:34;;;;;;;6.63;0.57;;;;;;;;;;5069426;28;20111;-72
2023/10/31 09:59:05;;;;;;;6.03;0.80;;;;;;;;;;5066602;28;20377;-70
2023/10/31 10:01:31;;;;;;;4.45;0.75;;;;;;;;;;5067680;28;20087;-70
2023/10/31 10:03:57;;;;;;;3.35;0.50;;;;;;;;;;5066256;28;20044;-70
2023/10/31 10:06:23;;;;;;;3.70;1.05;;;;;;;;;;5068394;28;20036;-70
2023/10/31 10:08:50;;;;;;;6.55;0.60;;;;;;;;;;5050799;28;20385;-73
2023/10/31 10:11:16;;;;;;;7.63;1.42;;;;;;;;;;5068331;28;20037;-71
2023/10/31 10:13:42;;;;;;;6.88;0.95;;;;;;;;;;5066666;28;20094;-70
2023/10/31 10:16:08;;;;;;;9.68;0.60;;;;;;;;;;5068188;28;20044;-70
2023/10/31 10:18:37;;;;;;;5.65;0.47;;;;;;;;;;5067186;28;20049;-71
2023/10/31 10:21:04;;;;;;;10.75;0.80;;;;;;;;;;5069184;28;20033;-72
2023/10/31 10:23:31;;;;;;;4.20;0.57;;;;;;;;;;5070179;28;20090;-70
2023/10/31 10:25:58;;;;;;;5.22;0.90;;;;;;;;;;5071263;28;20165;-71
2023/10/31 10:28:24;;;;;;;5.80;0.70;;;;;;;;;;5070199;28;20032;-70
2023/10/31 10:30:51;;;;;;;15.25;0.82;;;;;;;;;;5049972;28;20108;-71
2023/10/31 10:33:17;;;;;;;11.45;1.17;;;;;;;;;;5067731;28;20032;-72
2023/10/31 10:35:44;;;;;;;7.85;0.70;;;;;;;;;;5067432;28;20103;-71
2023/10/31 10:38:20;;;;;;;6.68;1.90;;;;;;;;;;5069135;28;20473;-70
2023/10/31 10:40:47;;;;;;;6.05;1.02;;;;;;;;;;5068090;28;20626;-71
2023/10/31 10:43:19;;;;;;;8.55;1.77;;;;;;;;;;5068574;28;20438;-70
2023/10/31 10:45:45;;;;;;;4.90;0.68;;;;;;;;;;5063791;28;20035;-71
2023/10/31 10:48:13;;;;;;;4.95;0.77;;;;;;;;;;5046285;28;20040;-75
2023/10/31 10:50:42;;;;;;;3.83;0.65;;;;;;;;;;5069098;28;20036;-74
2023/10/31 10:53:14;;;;;;;7.10;0.70;;;;;;;;;;5067673;28;20106;-72
2023/10/31 10:55:43;;;;;;;8.10;2.05;;;;;;;;;;5068704;28;20044;-74
2023/10/31 10:58:19;;;;;;;8.13;1.98;;;;;;;;;;5066872;28;20032;-73
2023/10/31 11:00:45;;;;;;;6.00;1.20;;;;;;;;;;5068590;28;20635;-71
2023/10/31 11:03:11;;;;;;;3.85;1.00;;;;;;;;;;5062768;28;20051;-71
2023/10/31 11:05:37;;;;;;;6.40;0.57;;;;;;;;;;5068550;28;20025;-70
2023/10/31 11:08:05;;;;;;;7.97;1.00;;;;;;;;;;5066201;28;20040;-71
2023/10/31 11:10:32;;;;;;;5.35;1.38;;;;;;;;;;5067278;28;20089;-72
2023/10/31 11:12:58;;;;;;;5.85;0.60;;;;;;;;;;5065632;28;20036;-72
2023/10/31 11:15:24;;;;;;;7.38;2.17;;;;;;;;;;5073375;28;20043;-73
2023/10/31 11:17:52;;;;;;;3.72;1.17;;;;;;;;;;5048789;28;20053;-73
2023/10/31 11:20:18;;;;;;;8.68;0.98;;;;;;;;;;5051513;28;20029;-74
2023/10/31 11:22:45;;;;;;;2.75;0.73;;;;;;;;;;5042242;28;20025;-72
2023/10/31 11:25:16;;;;;;;6.38;0.80;;;;;;;;;;5054773;28;20070;-73
2023/10/31 11:27:42;;;;;;;4.88;0.80;;;;;;;;;;5048697;28;20039;-75
2023/10/31 11:30:20;;;;;;;9.90;1.30;;;;;;;;;;5053164;28;20063;-73
2023/10/31 11:32:50;;;;;;;9.85;1.33;;;;;;;;;;5054380;28;20023;-74
2023/10/31 11:35:18;;;;;;;4.20;0.80;;;;;;;;;;5054512;28;20087;-72
2023/10/31 11:37:44;;;;;;;4.53;0.80;;;;;;;;;;5053847;28;20102;-72
2023/10/31 11:40:19;;;;;;;5.20;1.27;;;;;;;;;;5054023;28;20040;-74
2023/10/31 11:42:50;;;;;;;4.00;0.70;;;;;;;;;;5046825;28;20033;-73
2023/10/31 11:45:36;;;;;;;3.78;0.80;;;;;;;;;;5054371;28;20017;-73
2023/10/31 11:48:04;;;;;;;6.53;1.33;;;;;;;;;;5049786;28;20032;-72
2023/10/31 11:50:30;;;;;;;5.97;1.13;;;;;;;;;;5054343;28;20025;-74
2023/10/31 11:53:00;;;;;;;1.90;0.55;;;;;;;;;;5051768;28;20508;-74
2023/10/31 11:55:26;;;;;;;5.55;0.90;;;;;;;;;;5047206;28;20033;-78
2023/10/31 11:57:52;;;;;;;5.95;0.77;;;;;;;;;;5048263;28;20033;-75
2023/10/31 12:00:22;;;;;;;6.10;0.70;;;;;;;;;;5051422;28;20103;-73
2023/10/31 12:03:03;;;;;;;5.22;1.13;;;;;;;;;;5050199;28;20029;-74
2023/10/31 12:05:29;;;;;;;4.35;0.60;;;;;;;;;;5048566;28;20068;-72
2023/10/31 12:07:56;;;;;;;4.93;0.88;;;;;;;;;;5049729;28;20494;-78
2023/10/31 12:10:24;;;;;;;2.70;0.60;;;;;;;;;;5050771;28;20037;-73
2023/10/31 12:12:50;;;;;;;5.45;0.95;;;;;;;;;;5048901;28;20083;-72
2023/10/31 12:15:16;;;;;;;5.32;0.88;;;;;;;;;;5048904;28;20446;-72
2023/10/31 12:17:42;;;;;;;4.00;0.70;;;;;;;;;;5056856;28;20083;-72
2023/10/31 12:20:09;;;;;;;5.93;1.00;;;;;;;;;;5069081;28;20124;-71
2023/10/31 12:22:35;;;;;;;3.10;0.57;;;;;;;;;;5069751;28;20036;-71
2023/10/31 12:25:02;;;;;;;7.25;0.70;;;;;;;;;;5070193;28;20044;-74
2023/10/31 12:27:43;;;;;;;4.82;0.70;;;;;;;;;;5069140;28;20032;-70
2023/10/31 12:30:09;;;;;;;5.10;0.75;;;;;;;;;;5069267;28;20050;-69
2023/10/31 12:32:35;;;;;;;5.72;0.80;;;;;;;;;;5068346;28;20102;-68
2023/10/31 12:35:01;;;;;;;5.50;1.20;;;;;;;;;;5070113;28;20029;-70
2023/10/31 12:37:27;;;;;;;5.03;1.38;;;;;;;;;;5069911;28;20401;-70
2023/10/31 12:39:53;;;;;;;5.03;1.02;;;;;;;;;;5067955;28;20048;-69
2023/10/31 12:42:20;;;;;;;6.28;0.90;;;;;;;;;;5070416;28;20036;-71
2023/10/31 12:44:46;;;;;;;3.92;0.88;;;;;;;;;;5052320;28;20024;-73
2023/10/31 12:47:21;;;;;;;3.17;0.60;;;;;;;;;;5069793;28;20037;-68
2023/10/31 12:49:47;;;;;;;3.67;0.85;;;;;;;;;;5050213;28;20094;-73
2023/10/31 12:52:13;;;;;;;4.80;0.63;;;;;;;;;;5067859;28;20036;-72
2023/10/31 12:54:39;;;;;;;4.63;1.42;;;;;;;;;;5069889;28;20029;-72
2023/10/31 12:57:06;;;;;;;12.60;3.88;;;;;;;;;;5069351;28;20033;-71
2023/10/31 12:59:33;;;;;;;3.92;0.70;;;;;;;;;;5070793;28;20072;-69
2023/10/31 13:01:59;;;;;;;4.63;1.10;;;;;;;;;;5067208;28;20071;-71
2023/10/31 13:04:29;;;;;;;6.32;0.82;;;;;;;;;;5067801;28;20028;-70
2023/10/31 13:06:59;;;;;;;4.70;0.73;;;;;;;;;;5068217;28;20071;-68
2023/10/31 13:09:28;;;;;;;2.30;0.70;;;;;;;;;;5068199;28;20036;-68
2023/10/31 13:11:57;;;;;;;3.63;0.57;;;;;;;;;;5068769;28;20032;-69
2023/10/31 13:14:23;;;;;;;4.47;1.17;;;;;;;;;;5069111;28;20043;-77
2023/10/31 13:16:49;;;;;;;3.45;0.88;;;;;;;;;;5065005;28;20040;-69
2023/10/31 13:19:16;;;;;;;7.57;2.83;;;;;;;;;;5066191;28;20379;-71
2023/10/31 13:21:42;;;;;;;6.43;1.60;;;;;;;;;;5065306;28;20128;-69
2023/10/31 13:24:08;;;;;;;4.03;0.50;;;;;;;;;;5069244;28;20040;-70
2023/10/31 13:26:34;;;;;;;5.38;0.93;;;;;;;;;;5068617;28;20047;-70
2023/10/31 13:29:00;;;;;;;3.53;0.60;;;;;;;;;;5068691;28;20453;-74
2023/10/31 13:31:26;;;;;;;7.40;1.10;;;;;;;;;;5069981;28;20044;-71
2023/10/31 13:33:52;;;;;;;5.22;1.10;;;;;;;;;;5064707;28;20040;-73
2023/10/31 13:36:18;;;;;;;5.13;1.33;;;;;;;;;;5066688;28;20048;-70
2023/10/31 13:38:44;;;;;;;7.32;0.63;;;;;;;;;;5069124;28;20120;-72
2023/10/31 13:41:10;;;;;;;5.20;1.10;;;;;;;;;;5068481;28;20100;-73
2023/10/31 13:43:36;;;;;;;15.77;2.22;;;;;;;;;;5066844;28;20048;-71
2023/10/31 13:46:03;;;;;;;37.88;7.45;;;;;;;;;;5066556;28;20056;-75
2023/10/31 13:48:30;;;;;;;7.18;1.20;;;;;;;;;;5069619;28;20127;-75
2023/10/31 13:50:56;;;;;;;12.02;1.83;;;;;;;;;;5065933;28;20028;-73
2023/10/31 13:53:22;;;;;;;7.45;1.55;;;;;;;;;;5065815;28;20202;-71
2023/10/31 13:55:48;;;;;;;40.92;7.63;;;;;;;;;;5068788;28;20197;-71
2023/10/31 13:58:15;;;;;;;8.80;2.33;;;;;;;;;;5067576;28;20055;-73
2023/10/31 14:00:41;;;;;;;17.10;3.28;;;;;;;;;;5068084;28;20524;-74
2023/10/31 14:03:07;;;;;;;103.50;19.63;;;;;;;;;;5068343;28;20025;-71
2023/10/31 14:05:33;;;;;;;31.92;4.80;;;;;;;;;;5051210;28;20043;-73
2023/10/31 14:07:59;;;;;;;50.45;10.30;;;;;;;;;;5067779;28;20201;-77
2023/10/31 14:10:26;;;;;;;43.03;7.35;;;;;;;;;;5068306;28;20044;-71
2023/10/31 14:12:52;;;;;;;165.18;32.17;;;;;;;;;;5065936;28;20032;-76
2023/10/31 14:15:22;;;;;;;48.10;9.73;;;;;;;;;;5062275;28;20063;-73
2023/10/31 14:17:48;;;;;;;62.75;12.10;;;;;;;;;;5066934;28;20045;-73
2023/10/31 14:20:14;;;;;;;18.88;4.25;;;;;;;;;;5066741;28;20592;-74
2023/10/31 14:22:40;;;;;;;251.85;54.10;;;;;;;;;;5066882;28;20043;-73
2023/10/31 14:25:07;;;;;;;26.15;5.05;;;;;;;;;;5064653;28;20043;-72
2023/10/31 14:27:33;;;;;;;105.18;22.98;;;;;;;;;;5050711;28;20036;-75
2023/10/31 14:29:59;;;;;;;41.08;7.50;;;;;;;;;;5069000;28;20111;-71
2023/10/31 14:32:25;;;;;;;71.45;16.48;;;;;;;;;;5068062;28;20032;-76
2023/10/31 14:34:51;;;;;;;73.82;15.55;;;;;;;;;;5050807;28;20033;-81